KPTB

Dinwiddie County Airport

Petersburg, Virginia, USA
METAR KPTB 110335Z AUTO 00000KT 7SM CLR M03/M04 A3020 RMK AO2 T10301042
Observed Flight Rules
Dec-11 @ 03:35 UTC (6 minutes ago) Visual Flight Rules
Visibility Clouds
7 miles
  • Clear skies
Temperatures Readings
Current -3°C / 27°F
Dewpoint -4°C / 25°F
Humidity 93%
Altimeter 30.2" Hg
Pressure 1023 hPa
Elevation 59
METAR KPTB 110335Z AUTO 00000KT 7SM CLR M03/M04 A3020 RMK AO2 T10301042
Observed Flight Rules
Dec-11 @ 03:35 UTC
(6 minutes ago)
VFR
Clouds
  • Clear skies
Temperature Dewpoint
-3°C / 27°F -4°C / 25°F
Humidity Altimeter Pressure
93% 30.2" Hg 1023 hPa